sensor_id;sensor_type;location;lat;lon;timestamp;P1;durP1;ratioP1;P2;durP2;ratioP2
16450;SDS011;12243;42.708;23.310;2023-12-20T00:01:07;160.27;;;88.07;;
16450;SDS011;12243;42.708;23.310;2023-12-20T00:03:34;166.87;;;89.30;;
16450;SDS011;12243;42.708;23.310;2023-12-20T00:06:01;161.77;;;85.90;;
16450;SDS011;12243;42.708;23.310;2023-12-20T00:08:28;159.50;;;83.73;;
16450;SDS011;12243;42.708;23.310;2023-12-20T00:10:54;152.57;;;76.37;;
16450;SDS011;12243;42.708;23.310;2023-12-20T00:13:21;146.20;;;76.57;;
16450;SDS011;12243;42.708;23.310;2023-12-20T00:15:49;145.87;;;78.07;;
16450;SDS011;12243;42.708;23.310;2023-12-20T00:18:16;128.33;;;71.57;;
16450;SDS011;12243;42.708;23.310;2023-12-20T00:20:44;124.87;;;65.47;;
16450;SDS011;12243;42.708;23.310;2023-12-20T00:23:10;126.33;;;65.13;;
16450;SDS011;12243;42.708;23.310;2023-12-20T00:25:37;121.10;;;64.90;;
16450;SDS011;12243;42.708;23.310;2023-12-20T00:28:04;132.40;;;69.80;;
16450;SDS011;12243;42.708;23.310;2023-12-20T00:30:31;136.20;;;73.00;;
16450;SDS011;12243;42.708;23.310;2023-12-20T00:32:59;126.63;;;67.47;;
16450;SDS011;12243;42.708;23.310;2023-12-20T00:35:26;126.90;;;66.20;;
16450;SDS011;12243;42.708;23.310;2023-12-20T00:37:53;131.30;;;68.50;;
16450;SDS011;12243;42.708;23.310;2023-12-20T00:40:20;144.50;;;73.07;;
16450;SDS011;12243;42.708;23.310;2023-12-20T00:42:47;128.03;;;66.43;;
16450;SDS011;12243;42.708;23.310;2023-12-20T00:45:14;123.33;;;67.10;;
16450;SDS011;12243;42.708;23.310;2023-12-20T00:47:40;115.40;;;63.20;;
16450;SDS011;12243;42.708;23.310;2023-12-20T00:50:08;104.40;;;55.93;;
16450;SDS011;12243;42.708;23.310;2023-12-20T00:52:36;108.00;;;52.57;;
16450;SDS011;12243;42.708;23.310;2023-12-20T00:55:03;101.73;;;53.17;;
16450;SDS011;12243;42.708;23.310;2023-12-20T00:57:30;103.43;;;51.73;;
16450;SDS011;12243;42.708;23.310;2023-12-20T00:59:57;107.43;;;55.50;;
16450;SDS011;12243;42.708;23.310;2023-12-20T01:02:24;111.13;;;54.77;;
16450;SDS011;12243;42.708;23.310;2023-12-20T01:04:51;107.07;;;57.10;;
16450;SDS011;12243;42.708;23.310;2023-12-20T01:07:19;101.33;;;55.33;;
16450;SDS011;12243;42.708;23.310;2023-12-20T01:09:46;115.77;;;59.93;;
16450;SDS011;12243;42.708;23.310;2023-12-20T01:12:13;127.67;;;66.43;;
16450;SDS011;12243;42.708;23.310;2023-12-20T01:14:40;128.60;;;62.97;;
16450;SDS011;12243;42.708;23.310;2023-12-20T01:17:07;111.23;;;57.93;;
16450;SDS011;12243;42.708;23.310;2023-12-20T01:19:34;116.63;;;56.40;;
16450;SDS011;12243;42.708;23.310;2023-12-20T01:22:01;115.03;;;56.97;;
16450;SDS011;12243;42.708;23.310;2023-12-20T01:24:30;114.50;;;56.53;;
16450;SDS011;12243;42.708;23.310;2023-12-20T01:26:57;123.80;;;59.33;;
16450;SDS011;12243;42.708;23.310;2023-12-20T01:29:24;114.33;;;59.30;;
16450;SDS011;12243;42.708;23.310;2023-12-20T01:31:50;127.73;;;58.47;;
16450;SDS011;12243;42.708;23.310;2023-12-20T01:34:17;120.03;;;57.90;;
16450;SDS011;12243;42.708;23.310;2023-12-20T01:36:44;130.93;;;61.43;;
16450;SDS011;12243;42.708;23.310;2023-12-20T01:39:11;135.23;;;61.63;;
16450;SDS011;12243;42.708;23.310;2023-12-20T01:41:40;125.70;;;64.43;;
16450;SDS011;12243;42.708;23.310;2023-12-20T01:44:07;115.47;;;60.13;;
16450;SDS011;12243;42.708;23.310;2023-12-20T01:46:34;113.77;;;58.13;;
16450;SDS011;12243;42.708;23.310;2023-12-20T01:49:01;119.43;;;58.67;;
16450;SDS011;12243;42.708;23.310;2023-12-20T01:51:28;127.63;;;64.77;;
16450;SDS011;12243;42.708;23.310;2023-12-20T01:53:55;127.30;;;63.03;;
16450;SDS011;12243;42.708;23.310;2023-12-20T01:56:24;141.80;;;69.20;;
16450;SDS011;12243;42.708;23.310;2023-12-20T01:58:52;135.97;;;71.50;;
16450;SDS011;12243;42.708;23.310;2023-12-20T02:01:20;134.77;;;68.57;;
16450;SDS011;12243;42.708;23.310;2023-12-20T02:03:47;143.57;;;71.10;;
16450;SDS011;12243;42.708;23.310;2023-12-20T02:06:14;140.53;;;71.70;;
16450;SDS011;12243;42.708;23.310;2023-12-20T02:08:41;138.47;;;71.33;;
16450;SDS011;12243;42.708;23.310;2023-12-20T02:11:08;135.67;;;65.57;;
16450;SDS011;12243;42.708;23.310;2023-12-20T02:13:36;126.67;;;58.07;;
16450;SDS011;12243;42.708;23.310;2023-12-20T02:16:05;115.40;;;61.73;;
16450;SDS011;12243;42.708;23.310;2023-12-20T02:18:32;129.87;;;64.03;;
16450;SDS011;12243;42.708;23.310;2023-12-20T02:20:59;117.47;;;54.43;;
16450;SDS011;12243;42.708;23.310;2023-12-20T02:23:27;117.03;;;58.33;;
16450;SDS011;12243;42.708;23.310;2023-12-20T02:25:54;112.23;;;54.17;;
16450;SDS011;12243;42.708;23.310;2023-12-20T02:28:21;105.00;;;49.73;;
16450;SDS011;12243;42.708;23.310;2023-12-20T02:30:48;106.87;;;48.23;;
16450;SDS011;12243;42.708;23.310;2023-12-20T02:33:15;108.37;;;48.20;;
16450;SDS011;12243;42.708;23.310;2023-12-20T02:35:43;93.40;;;45.43;;
16450;SDS011;12243;42.708;23.310;2023-12-20T02:38:10;94.43;;;44.70;;
16450;SDS011;12243;42.708;23.310;2023-12-20T02:40:38;103.63;;;44.77;;
16450;SDS011;12243;42.708;23.310;2023-12-20T02:43:05;102.73;;;43.83;;
16450;SDS011;12243;42.708;23.310;2023-12-20T02:45:31;108.03;;;46.27;;
16450;SDS011;12243;42.708;23.310;2023-12-20T02:47:58;94.70;;;43.17;;
16450;SDS011;12243;42.708;23.310;2023-12-20T02:50:25;101.67;;;46.10;;
16450;SDS011;12243;42.708;23.310;2023-12-20T02:52:52;102.83;;;44.27;;
16450;SDS011;12243;42.708;23.310;2023-12-20T02:55:19;95.07;;;43.57;;
16450;SDS011;12243;42.708;23.310;2023-12-20T02:57:47;90.77;;;42.20;;
16450;SDS011;12243;42.708;23.310;2023-12-20T03:00:14;100.47;;;42.67;;
16450;SDS011;12243;42.708;23.310;2023-12-20T03:02:41;105.80;;;41.60;;
16450;SDS011;12243;42.708;23.310;2023-12-20T03:05:08;100.93;;;44.50;;
16450;SDS011;12243;42.708;23.310;2023-12-20T03:07:36;99.47;;;42.47;;
16450;SDS011;12243;42.708;23.310;2023-12-20T03:10:04;107.73;;;41.20;;
16450;SDS011;12243;42.708;23.310;2023-12-20T03:12:32;110.20;;;39.70;;
16450;SDS011;12243;42.708;23.310;2023-12-20T03:15:01;119.27;;;40.47;;
16450;SDS011;12243;42.708;23.310;2023-12-20T03:17:28;98.07;;;41.87;;
16450;SDS011;12243;42.708;23.310;2023-12-20T03:19:55;76.60;;;39.07;;
16450;SDS011;12243;42.708;23.310;2023-12-20T03:22:21;94.33;;;39.90;;
16450;SDS011;12243;42.708;23.310;2023-12-20T03:24:48;98.73;;;41.50;;
16450;SDS011;12243;42.708;23.310;2023-12-20T03:27:15;88.40;;;39.73;;
16450;SDS011;12243;42.708;23.310;2023-12-20T03:29:42;89.57;;;40.97;;
16450;SDS011;12243;42.708;23.310;2023-12-20T03:32:10;96.50;;;40.50;;
16450;SDS011;12243;42.708;23.310;2023-12-20T03:34:37;96.33;;;41.50;;
16450;SDS011;12243;42.708;23.310;2023-12-20T03:37:04;107.00;;;41.97;;
16450;SDS011;12243;42.708;23.310;2023-12-20T03:39:31;95.73;;;40.10;;
16450;SDS011;12243;42.708;23.310;2023-12-20T03:41:58;96.07;;;42.20;;
16450;SDS011;12243;42.708;23.310;2023-12-20T03:44:24;87.20;;;39.63;;
16450;SDS011;12243;42.708;23.310;2023-12-20T03:46:51;127.67;;;44.73;;
16450;SDS011;12243;42.708;23.310;2023-12-20T03:49:19;94.10;;;42.83;;
16450;SDS011;12243;42.708;23.310;2023-12-20T03:51:46;99.77;;;41.77;;
16450;SDS011;12243;42.708;23.310;2023-12-20T03:54:13;93.77;;;43.80;;
16450;SDS011;12243;42.708;23.310;2023-12-20T03:56:40;106.50;;;46.53;;
16450;SDS011;12243;42.708;23.310;2023-12-20T03:59:07;108.17;;;48.20;;
16450;SDS011;12243;42.708;23.310;2023-12-20T04:01:34;124.57;;;51.60;;
16450;SDS011;12243;42.708;23.310;2023-12-20T04:04:01;105.90;;;44.07;;
16450;SDS011;12243;42.708;23.310;2023-12-20T04:06:29;100.60;;;43.70;;
16450;SDS011;12243;42.708;23.310;2023-12-20T04:08:56;84.07;;;39.27;;
16450;SDS011;12243;42.708;23.310;2023-12-20T04:11:23;84.00;;;38.70;;
16450;SDS011;12243;42.708;23.310;2023-12-20T04:13:50;88.80;;;37.80;;
16450;SDS011;12243;42.708;23.310;2023-12-20T04:16:17;112.43;;;40.10;;
16450;SDS011;12243;42.708;23.310;2023-12-20T04:18:46;90.20;;;39.80;;
16450;SDS011;12243;42.708;23.310;2023-12-20T04:21:13;97.07;;;43.47;;
16450;SDS011;12243;42.708;23.310;2023-12-20T04:23:41;99.03;;;40.13;;
16450;SDS011;12243;42.708;23.310;2023-12-20T04:26:08;91.30;;;40.47;;
16450;SDS011;12243;42.708;23.310;2023-12-20T04:28:35;109.47;;;47.80;;
16450;SDS011;12243;42.708;23.310;2023-12-20T04:31:02;138.73;;;41.03;;
16450;SDS011;12243;42.708;23.310;2023-12-20T04:33:29;121.63;;;43.30;;
16450;SDS011;12243;42.708;23.310;2023-12-20T04:35:56;194.50;;;40.93;;
16450;SDS011;12243;42.708;23.310;2023-12-20T04:38:23;125.93;;;40.10;;
16450;SDS011;12243;42.708;23.310;2023-12-20T04:40:51;134.93;;;39.33;;
16450;SDS011;12243;42.708;23.310;2023-12-20T04:43:18;104.80;;;39.60;;
16450;SDS011;12243;42.708;23.310;2023-12-20T04:45:44;95.13;;;36.33;;
16450;SDS011;12243;42.708;23.310;2023-12-20T04:48:11;93.97;;;38.43;;
16450;SDS011;12243;42.708;23.310;2023-12-20T04:50:38;93.17;;;35.97;;
16450;SDS011;12243;42.708;23.310;2023-12-20T04:53:05;81.27;;;35.40;;
16450;SDS011;12243;42.708;23.310;2023-12-20T04:55:32;77.57;;;34.20;;
16450;SDS011;12243;42.708;23.310;2023-12-20T04:58:01;83.40;;;34.13;;
16450;SDS011;12243;42.708;23.310;2023-12-20T05:00:27;97.73;;;35.67;;
16450;SDS011;12243;42.708;23.310;2023-12-20T05:02:55;89.77;;;33.97;;
16450;SDS011;12243;42.708;23.310;2023-12-20T05:05:22;81.03;;;34.03;;
16450;SDS011;12243;42.708;23.310;2023-12-20T05:07:49;85.70;;;32.90;;
16450;SDS011;12243;42.708;23.310;2023-12-20T05:10:15;77.87;;;33.23;;
16450;SDS011;12243;42.708;23.310;2023-12-20T05:12:42;90.17;;;32.70;;
16450;SDS011;12243;42.708;23.310;2023-12-20T05:15:11;91.30;;;34.37;;
16450;SDS011;12243;42.708;23.310;2023-12-20T05:17:37;89.60;;;34.83;;
16450;SDS011;12243;42.708;23.310;2023-12-20T05:20:05;94.23;;;35.80;;
16450;SDS011;12243;42.708;23.310;2023-12-20T05:22:33;82.23;;;35.07;;
16450;SDS011;12243;42.708;23.310;2023-12-20T05:24:59;83.43;;;34.33;;
16450;SDS011;12243;42.708;23.310;2023-12-20T05:27:26;75.87;;;35.10;;
16450;SDS011;12243;42.708;23.310;2023-12-20T05:29:53;85.63;;;36.27;;
16450;SDS011;12243;42.708;23.310;2023-12-20T05:32:24;80.27;;;35.97;;
16450;SDS011;12243;42.708;23.310;2023-12-20T05:34:51;97.13;;;35.00;;
16450;SDS011;12243;42.708;23.310;2023-12-20T05:37:18;92.53;;;34.10;;
16450;SDS011;12243;42.708;23.310;2023-12-20T05:39:45;95.57;;;34.77;;
16450;SDS011;12243;42.708;23.310;2023-12-20T05:42:12;77.50;;;34.50;;
16450;SDS011;12243;42.708;23.310;2023-12-20T05:44:38;80.93;;;32.83;;
16450;SDS011;12243;42.708;23.310;2023-12-20T05:47:05;86.97;;;35.63;;
16450;SDS011;12243;42.708;23.310;2023-12-20T05:49:34;95.70;;;35.93;;
16450;SDS011;12243;42.708;23.310;2023-12-20T05:52:00;80.33;;;33.40;;
16450;SDS011;12243;42.708;23.310;2023-12-20T05:54:27;74.07;;;35.27;;
16450;SDS011;12243;42.708;23.310;2023-12-20T05:56:54;103.13;;;33.90;;
16450;SDS011;12243;42.708;23.310;2023-12-20T05:59:21;130.37;;;37.37;;
16450;SDS011;12243;42.708;23.310;2023-12-20T06:01:49;82.73;;;34.57;;
16450;SDS011;12243;42.708;23.310;2023-12-20T06:04:16;87.30;;;36.60;;
16450;SDS011;12243;42.708;23.310;2023-12-20T06:06:44;88.93;;;40.57;;
16450;SDS011;12243;42.708;23.310;2023-12-20T06:09:11;83.10;;;34.30;;
16450;SDS011;12243;42.708;23.310;2023-12-20T06:11:38;74.87;;;34.47;;
16450;SDS011;12243;42.708;23.310;2023-12-20T06:14:05;86.13;;;36.67;;
16450;SDS011;12243;42.708;23.310;2023-12-20T06:16:32;83.27;;;35.57;;
16450;SDS011;12243;42.708;23.310;2023-12-20T06:18:58;109.50;;;38.80;;
16450;SDS011;12243;42.708;23.310;2023-12-20T06:21:25;94.40;;;36.97;;
16450;SDS011;12243;42.708;23.310;2023-12-20T06:23:53;94.50;;;33.60;;
16450;SDS011;12243;42.708;23.310;2023-12-20T06:26:21;90.40;;;35.63;;
16450;SDS011;12243;42.708;23.310;2023-12-20T06:28:48;120.67;;;37.90;;
16450;SDS011;12243;42.708;23.310;2023-12-20T06:31:15;112.80;;;37.27;;
16450;SDS011;12243;42.708;23.310;2023-12-20T06:33:42;124.93;;;37.00;;
16450;SDS011;12243;42.708;23.310;2023-12-20T06:36:10;92.50;;;36.83;;
16450;SDS011;12243;42.708;23.310;2023-12-20T06:38:38;98.00;;;39.97;;
16450;SDS011;12243;42.708;23.310;2023-12-20T06:41:07;100.13;;;37.97;;
16450;SDS011;12243;42.708;23.310;2023-12-20T06:43:33;95.30;;;38.97;;
16450;SDS011;12243;42.708;23.310;2023-12-20T06:46:00;113.53;;;42.73;;
16450;SDS011;12243;42.708;23.310;2023-12-20T06:48:27;91.57;;;38.30;;
16450;SDS011;12243;42.708;23.310;2023-12-20T06:50:54;96.33;;;40.67;;
16450;SDS011;12243;42.708;23.310;2023-12-20T06:53:21;112.33;;;43.27;;
16450;SDS011;12243;42.708;23.310;2023-12-20T06:55:48;114.93;;;42.30;;
16450;SDS011;12243;42.708;23.310;2023-12-20T06:58:17;119.73;;;43.87;;
16450;SDS011;12243;42.708;23.310;2023-12-20T07:00:43;93.57;;;43.03;;
16450;SDS011;12243;42.708;23.310;2023-12-20T07:03:10;89.33;;;41.67;;
16450;SDS011;12243;42.708;23.310;2023-12-20T07:05:37;108.50;;;46.40;;
16450;SDS011;12243;42.708;23.310;2023-12-20T07:08:04;97.70;;;45.10;;
16450;SDS011;12243;42.708;23.310;2023-12-20T07:10:32;98.70;;;44.77;;
16450;SDS011;12243;42.708;23.310;2023-12-20T07:12:59;107.30;;;44.57;;
16450;SDS011;12243;42.708;23.310;2023-12-20T07:15:28;95.90;;;44.63;;
16450;SDS011;12243;42.708;23.310;2023-12-20T07:17:54;98.47;;;44.20;;
16450;SDS011;12243;42.708;23.310;2023-12-20T07:20:21;95.90;;;43.83;;
16450;SDS011;12243;42.708;23.310;2023-12-20T07:22:48;95.47;;;43.77;;
16450;SDS011;12243;42.708;23.310;2023-12-20T07:25:15;96.83;;;44.23;;
16450;SDS011;12243;42.708;23.310;2023-12-20T07:27:43;96.90;;;45.93;;
16450;SDS011;12243;42.708;23.310;2023-12-20T07:30:10;92.77;;;44.97;;
16450;SDS011;12243;42.708;23.310;2023-12-20T07:32:39;96.23;;;45.07;;
16450;SDS011;12243;42.708;23.310;2023-12-20T07:35:06;90.77;;;44.20;;
16450;SDS011;12243;42.708;23.310;2023-12-20T07:37:33;104.23;;;44.73;;
16450;SDS011;12243;42.708;23.310;2023-12-20T07:40:00;102.33;;;45.57;;
16450;SDS011;12243;42.708;23.310;2023-12-20T07:42:28;104.90;;;44.80;;
16450;SDS011;12243;42.708;23.310;2023-12-20T07:44:55;100.67;;;45.37;;
16450;SDS011;12243;42.708;23.310;2023-12-20T07:47:22;106.50;;;45.73;;
16450;SDS011;12243;42.708;23.310;2023-12-20T07:49:51;100.43;;;44.07;;
16450;SDS011;12243;42.708;23.310;2023-12-20T07:52:18;113.97;;;43.37;;
16450;SDS011;12243;42.708;23.310;2023-12-20T07:54:47;114.63;;;43.07;;
16450;SDS011;12243;42.708;23.310;2023-12-20T07:57:13;120.30;;;45.50;;
16450;SDS011;12243;42.708;23.310;2023-12-20T07:59:40;112.63;;;44.90;;
16450;SDS011;12243;42.708;23.310;2023-12-20T08:02:09;105.27;;;44.60;;
16450;SDS011;12243;42.708;23.310;2023-12-20T08:04:36;108.60;;;44.10;;
16450;SDS011;12243;42.708;23.310;2023-12-20T08:07:04;104.70;;;44.93;;
16450;SDS011;12243;42.708;23.310;2023-12-20T08:09:31;120.40;;;47.10;;
16450;SDS011;12243;42.708;23.310;2023-12-20T08:11:59;111.10;;;45.20;;
16450;SDS011;12243;42.708;23.310;2023-12-20T08:14:25;108.83;;;45.80;;
16450;SDS011;12243;42.708;23.310;2023-12-20T08:16:52;111.47;;;45.27;;
16450;SDS011;12243;42.708;23.310;2023-12-20T08:19:19;114.13;;;47.70;;
16450;SDS011;12243;42.708;23.310;2023-12-20T08:21:46;105.97;;;45.53;;
16450;SDS011;12243;42.708;23.310;2023-12-20T08:24:14;123.77;;;46.67;;
16450;SDS011;12243;42.708;23.310;2023-12-20T08:26:41;114.23;;;49.47;;
16450;SDS011;12243;42.708;23.310;2023-12-20T08:29:08;108.10;;;47.37;;
16450;SDS011;12243;42.708;23.310;2023-12-20T08:31:35;119.23;;;50.43;;
16450;SDS011;12243;42.708;23.310;2023-12-20T08:34:01;118.60;;;48.30;;
16450;SDS011;12243;42.708;23.310;2023-12-20T08:36:28;119.67;;;48.40;;
16450;SDS011;12243;42.708;23.310;2023-12-20T08:38:55;122.37;;;48.93;;
16450;SDS011;12243;42.708;23.310;2023-12-20T08:41:26;119.50;;;48.87;;
16450;SDS011;12243;42.708;23.310;2023-12-20T08:43:53;109.23;;;48.33;;
16450;SDS011;12243;42.708;23.310;2023-12-20T08:46:19;113.00;;;48.30;;
16450;SDS011;12243;42.708;23.310;2023-12-20T08:48:46;118.40;;;49.37;;
16450;SDS011;12243;42.708;23.310;2023-12-20T08:51:13;121.40;;;50.10;;
16450;SDS011;12243;42.708;23.310;2023-12-20T08:53:40;121.07;;;50.27;;
16450;SDS011;12243;42.708;23.310;2023-12-20T08:56:07;120.97;;;49.47;;
16450;SDS011;12243;42.708;23.310;2023-12-20T08:58:35;130.50;;;55.17;;
16450;SDS011;12243;42.708;23.310;2023-12-20T09:01:02;140.80;;;57.27;;
16450;SDS011;12243;42.708;23.310;2023-12-20T09:03:29;131.20;;;55.60;;
16450;SDS011;12243;42.708;23.310;2023-12-20T09:05:56;116.57;;;50.27;;
16450;SDS011;12243;42.708;23.310;2023-12-20T09:08:23;135.47;;;53.60;;
16450;SDS011;12243;42.708;23.310;2023-12-20T09:10:49;147.77;;;55.70;;
16450;SDS011;12243;42.708;23.310;2023-12-20T09:13:16;134.50;;;54.33;;
16450;SDS011;12243;42.708;23.310;2023-12-20T09:15:44;130.10;;;54.87;;
16450;SDS011;12243;42.708;23.310;2023-12-20T09:18:12;127.03;;;53.43;;
16450;SDS011;12243;42.708;23.310;2023-12-20T09:20:38;128.87;;;54.97;;
16450;SDS011;12243;42.708;23.310;2023-12-20T09:23:05;133.77;;;58.27;;
16450;SDS011;12243;42.708;23.310;2023-12-20T09:25:32;132.90;;;55.50;;
16450;SDS011;12243;42.708;23.310;2023-12-20T09:27:59;149.70;;;57.90;;
16450;SDS011;12243;42.708;23.310;2023-12-20T09:30:26;139.43;;;55.73;;
16450;SDS011;12243;42.708;23.310;2023-12-20T09:32:54;147.13;;;60.03;;
16450;SDS011;12243;42.708;23.310;2023-12-20T09:35:21;149.67;;;62.80;;
16450;SDS011;12243;42.708;23.310;2023-12-20T09:37:48;152.53;;;63.03;;
16450;SDS011;12243;42.708;23.310;2023-12-20T09:40:16;153.97;;;64.10;;
16450;SDS011;12243;42.708;23.310;2023-12-20T09:42:47;152.90;;;61.70;;
16450;SDS011;12243;42.708;23.310;2023-12-20T09:45:15;152.97;;;62.97;;
16450;SDS011;12243;42.708;23.310;2023-12-20T09:47:46;164.57;;;64.70;;
16450;SDS011;12243;42.708;23.310;2023-12-20T09:50:15;155.30;;;65.37;;
16450;SDS011;12243;42.708;23.310;2023-12-20T09:52:44;163.27;;;65.90;;
16450;SDS011;12243;42.708;23.310;2023-12-20T09:55:16;161.77;;;63.03;;
16450;SDS011;12243;42.708;23.310;2023-12-20T09:57:45;148.90;;;63.37;;
16450;SDS011;12243;42.708;23.310;2023-12-20T10:00:12;160.93;;;65.40;;
16450;SDS011;12243;42.708;23.310;2023-12-20T10:02:42;166.13;;;69.67;;
16450;SDS011;12243;42.708;23.310;2023-12-20T10:05:18;150.67;;;63.70;;
16450;SDS011;12243;42.708;23.310;2023-12-20T10:07:53;154.70;;;66.20;;
16450;SDS011;12243;42.708;23.310;2023-12-20T10:10:20;149.27;;;66.83;;
16450;SDS011;12243;42.708;23.310;2023-12-20T10:13:00;163.50;;;67.93;;
16450;SDS011;12243;42.708;23.310;2023-12-20T10:15:28;154.20;;;68.40;;
16450;SDS011;12243;42.708;23.310;2023-12-20T10:17:56;153.23;;;67.30;;
16450;SDS011;12243;42.708;23.310;2023-12-20T10:20:24;151.13;;;66.87;;
16450;SDS011;12243;42.708;23.310;2023-12-20T10:22:51;160.07;;;68.57;;
16450;SDS011;12243;42.708;23.310;2023-12-20T10:25:19;157.97;;;67.07;;
16450;SDS011;12243;42.708;23.310;2023-12-20T10:27:47;153.43;;;69.07;;
16450;SDS011;12243;42.708;23.310;2023-12-20T10:30:14;161.90;;;68.63;;
16450;SDS011;12243;42.708;23.310;2023-12-20T10:32:41;161.57;;;71.53;;
16450;SDS011;12243;42.708;23.310;2023-12-20T10:35:08;148.27;;;68.67;;
16450;SDS011;12243;42.708;23.310;2023-12-20T10:37:36;159.20;;;68.47;;
16450;SDS011;12243;42.708;23.310;2023-12-20T10:40:04;153.53;;;69.07;;
16450;SDS011;12243;42.708;23.310;2023-12-20T10:42:32;155.17;;;70.10;;
16450;SDS011;12243;42.708;23.310;2023-12-20T10:45:01;163.53;;;70.63;;
16450;SDS011;12243;42.708;23.310;2023-12-20T10:47:28;169.60;;;78.00;;
16450;SDS011;12243;42.708;23.310;2023-12-20T10:49:58;160.40;;;72.53;;
16450;SDS011;12243;42.708;23.310;2023-12-20T10:52:25;159.87;;;72.63;;
16450;SDS011;12243;42.708;23.310;2023-12-20T10:54:57;150.00;;;72.30;;
16450;SDS011;12243;42.708;23.310;2023-12-20T10:57:24;155.67;;;74.00;;
16450;SDS011;12243;42.708;23.310;2023-12-20T10:59:53;158.83;;;76.63;;
16450;SDS011;12243;42.708;23.310;2023-12-20T11:02:22;149.33;;;74.03;;
16450;SDS011;12243;42.708;23.310;2023-12-20T11:04:51;158.87;;;76.50;;
16450;SDS011;12243;42.708;23.310;2023-12-20T11:07:21;162.20;;;75.03;;
16450;SDS011;12243;42.708;23.310;2023-12-20T11:09:58;169.43;;;77.30;;
16450;SDS011;12243;42.708;23.310;2023-12-20T11:12:31;170.57;;;77.57;;
16450;SDS011;12243;42.708;23.310;2023-12-20T11:15:03;170.40;;;75.47;;
16450;SDS011;12243;42.708;23.310;2023-12-20T11:17:31;167.47;;;72.73;;
16450;SDS011;12243;42.708;23.310;2023-12-20T11:20:08;155.73;;;70.37;;
16450;SDS011;12243;42.708;23.310;2023-12-20T11:22:38;168.07;;;71.10;;
16450;SDS011;12243;42.708;23.310;2023-12-20T11:25:19;160.97;;;73.03;;
16450;SDS011;12243;42.708;23.310;2023-12-20T11:28:08;153.50;;;67.03;;
16450;SDS011;12243;42.708;23.310;2023-12-20T11:30:42;164.70;;;70.47;;
16450;SDS011;12243;42.708;23.310;2023-12-20T11:33:13;143.40;;;67.20;;
16450;SDS011;12243;42.708;23.310;2023-12-20T11:35:40;152.57;;;67.63;;
16450;SDS011;12243;42.708;23.310;2023-12-20T11:38:07;150.17;;;65.13;;
16450;SDS011;12243;42.708;23.310;2023-12-20T11:40:36;148.03;;;64.40;;
16450;SDS011;12243;42.708;23.310;2023-12-20T11:43:03;151.40;;;64.13;;
16450;SDS011;12243;42.708;23.310;2023-12-20T11:45:31;155.63;;;64.03;;
16450;SDS011;12243;42.708;23.310;2023-12-20T11:47:57;143.40;;;61.60;;
16450;SDS011;12243;42.708;23.310;2023-12-20T11:50:24;134.10;;;57.27;;
16450;SDS011;12243;42.708;23.310;2023-12-20T11:52:53;130.67;;;55.60;;
16450;SDS011;12243;42.708;23.310;2023-12-20T11:55:20;133.93;;;55.10;;
16450;SDS011;12243;42.708;23.310;2023-12-20T11:57:49;120.43;;;52.53;;
16450;SDS011;12243;42.708;23.310;2023-12-20T12:00:17;118.50;;;51.93;;
16450;SDS011;12243;42.708;23.310;2023-12-20T12:02:54;125.83;;;55.13;;
16450;SDS011;12243;42.708;23.310;2023-12-20T12:05:21;126.47;;;53.93;;
16450;SDS011;12243;42.708;23.310;2023-12-20T12:07:48;113.10;;;50.87;;
16450;SDS011;12243;42.708;23.310;2023-12-20T12:10:15;123.47;;;53.57;;
16450;SDS011;12243;42.708;23.310;2023-12-20T12:12:42;125.27;;;53.13;;
16450;SDS011;12243;42.708;23.310;2023-12-20T12:15:10;129.23;;;55.90;;
16450;SDS011;12243;42.708;23.310;2023-12-20T12:17:37;119.97;;;55.67;;
16450;SDS011;12243;42.708;23.310;2023-12-20T12:20:05;131.60;;;56.93;;
16450;SDS011;12243;42.708;23.310;2023-12-20T12:22:33;135.17;;;56.30;;
16450;SDS011;12243;42.708;23.310;2023-12-20T12:25:09;133.07;;;56.67;;
16450;SDS011;12243;42.708;23.310;2023-12-20T12:27:36;134.43;;;55.47;;
16450;SDS011;12243;42.708;23.310;2023-12-20T12:30:04;131.97;;;55.37;;
16450;SDS011;12243;42.708;23.310;2023-12-20T12:32:34;147.70;;;61.03;;
16450;SDS011;12243;42.708;23.310;2023-12-20T12:35:02;122.33;;;53.87;;
16450;SDS011;12243;42.708;23.310;2023-12-20T12:37:31;164.63;;;65.87;;
16450;SDS011;12243;42.708;23.310;2023-12-20T12:40:00;143.13;;;55.67;;
16450;SDS011;12243;42.708;23.310;2023-12-20T12:42:27;131.33;;;55.63;;
16450;SDS011;12243;42.708;23.310;2023-12-20T12:44:54;132.30;;;54.30;;
16450;SDS011;12243;42.708;23.310;2023-12-20T12:47:21;123.50;;;53.40;;
16450;SDS011;12243;42.708;23.310;2023-12-20T12:49:51;122.03;;;53.00;;
16450;SDS011;12243;42.708;23.310;2023-12-20T12:52:18;123.13;;;52.20;;
16450;SDS011;12243;42.708;23.310;2023-12-20T12:54:45;126.07;;;52.07;;
16450;SDS011;12243;42.708;23.310;2023-12-20T12:57:13;119.97;;;52.67;;
16450;SDS011;12243;42.708;23.310;2023-12-20T12:59:40;128.00;;;51.30;;
16450;SDS011;12243;42.708;23.310;2023-12-20T13:02:07;128.23;;;53.77;;
16450;SDS011;12243;42.708;23.310;2023-12-20T13:04:34;114.67;;;50.93;;
16450;SDS011;12243;42.708;23.310;2023-12-20T13:07:02;111.30;;;49.20;;
16450;SDS011;12243;42.708;23.310;2023-12-20T13:09:29;119.50;;;52.63;;
16450;SDS011;12243;42.708;23.310;2023-12-20T13:11:56;126.20;;;55.47;;
16450;SDS011;12243;42.708;23.310;2023-12-20T13:14:24;124.13;;;52.47;;
16450;SDS011;12243;42.708;23.310;2023-12-20T13:16:51;141.07;;;65.43;;
16450;SDS011;12243;42.708;23.310;2023-12-20T13:19:17;118.43;;;51.33;;
16450;SDS011;12243;42.708;23.310;2023-12-20T13:21:44;121.97;;;53.47;;
16450;SDS011;12243;42.708;23.310;2023-12-20T13:24:12;120.27;;;51.20;;
16450;SDS011;12243;42.708;23.310;2023-12-20T13:26:39;118.87;;;49.70;;
16450;SDS011;12243;42.708;23.310;2023-12-20T13:29:06;122.37;;;51.37;;
16450;SDS011;12243;42.708;23.310;2023-12-20T13:31:33;127.17;;;52.30;;
16450;SDS011;12243;42.708;23.310;2023-12-20T13:34:01;133.30;;;53.23;;
16450;SDS011;12243;42.708;23.310;2023-12-20T13:36:28;123.67;;;51.30;;
16450;SDS011;12243;42.708;23.310;2023-12-20T13:38:55;139.50;;;51.47;;
16450;SDS011;12243;42.708;23.310;2023-12-20T13:41:23;133.90;;;50.93;;
16450;SDS011;12243;42.708;23.310;2023-12-20T13:43:50;130.37;;;47.93;;
16450;SDS011;12243;42.708;23.310;2023-12-20T13:46:17;121.67;;;49.17;;
16450;SDS011;12243;42.708;23.310;2023-12-20T13:48:44;136.97;;;52.13;;
16450;SDS011;12243;42.708;23.310;2023-12-20T13:51:11;123.30;;;48.90;;
16450;SDS011;12243;42.708;23.310;2023-12-20T13:53:38;127.57;;;50.40;;
16450;SDS011;12243;42.708;23.310;2023-12-20T13:56:05;138.13;;;50.30;;
16450;SDS011;12243;42.708;23.310;2023-12-20T13:58:36;183.27;;;57.27;;
16450;SDS011;12243;42.708;23.310;2023-12-20T14:01:05;162.30;;;59.03;;